Time;durP1;ratioP1;P1;durP2;ratioP2;P2;SDS_P1;SDS_P2;PMS_P1;PMS_P2;Temp;Humidity;BMP_temperature;BMP_pressure;BME280_temperature;BME280_humidity;BME280_pressure;Samples;Min_cycle;Max_cycle;Signal;HPM_P1;HPM_P2
2023/01/29 00:01:25;;;;;;;27.48;8.43;;;;;;;3.58;63.67;99876.22;3157494;28;20051;-67
2023/01/29 00:02:56;;;;;;;26.75;8.35;;;;;;;3.59;63.64;99876.22;3157674;28;20048;-67
2023/01/29 00:04:30;;;;;;;30.52;10.00;;;;;;;3.57;63.60;99875.38;3157317;28;20066;-67
2023/01/29 00:06:05;;;;;;;;;;;;;;;3.54;63.99;99875.44;3158319;28;20048;-67
2023/01/29 00:07:37;;;;;;;32.22;8.38;;;;;;;3.50;63.74;99870.34;3157290;28;20364;-68
2023/01/29 00:09:09;;;;;;;29.77;8.95;;;;;;;3.52;63.72;99873.75;3157144;28;20056;-68
2023/01/29 00:10:40;;;;;;;26.80;8.40;;;;;;;3.50;63.68;99884.09;3157788;28;20435;-70
2023/01/29 00:12:12;;;;;;;24.98;8.27;;;;;;;3.53;63.73;99878.03;3157677;28;20063;-69
2023/01/29 00:13:45;;;;;;;24.73;8.20;;;;;;;3.55;63.66;99878.84;3157561;28;20048;-71
2023/01/29 00:15:17;;;;;;;21.52;6.68;;;;;;;3.58;63.63;99878.78;3157902;28;20048;-71
2023/01/29 00:16:49;;;;;;;15.13;6.23;;;;;;;3.57;63.60;99890.81;3157451;28;20051;-71
2023/01/29 00:18:21;;;;;;;16.75;6.38;;;;;;;3.58;63.51;99889.09;3157608;28;20313;-71
2023/01/29 00:19:54;;;;;;;14.68;6.15;;;;;;;3.55;63.58;99892.59;3157220;28;20448;-69
2023/01/29 00:21:26;;;;;;;12.32;5.72;;;;;;;3.55;63.67;99887.44;3154496;28;20048;-69
2023/01/29 00:22:57;;;;;;;9.38;5.55;;;;;;;3.56;63.61;99893.44;3157754;28;20052;-69
2023/01/29 00:24:29;;;;;;;10.65;5.40;;;;;;;3.58;63.64;99891.66;3157671;28;20104;-69
2023/01/29 00:26:00;;;;;;;12.23;5.53;;;;;;;3.57;63.60;99892.56;3150064;28;20044;-69
2023/01/29 00:27:32;;;;;;;9.38;5.32;;;;;;;3.56;63.80;99891.72;3157635;28;20097;-69
2023/01/29 00:29:04;;;;;;;15.27;5.70;;;;;;;3.54;63.82;99898.59;3157401;28;20040;-68
2023/01/29 00:30:37;;;;;;;9.15;5.32;;;;;;;3.52;63.69;99896.91;3158001;28;20055;-68
2023/01/29 00:32:08;;;;;;;11.77;5.10;;;;;;;3.52;63.69;99895.22;3157992;28;20505;-68
2023/01/29 00:33:41;;;;;;;11.43;5.55;;;;;;;3.54;63.75;99905.47;3160052;28;20101;-68
2023/01/29 00:35:14;;;;;;;12.25;6.55;;;;;;;3.53;63.79;99902.06;3159813;28;20059;-68
2023/01/29 00:36:46;;;;;;;10.55;6.05;;;;;;;3.54;63.66;99902.91;3159496;28;20044;-68
2023/01/29 00:38:16;;;;;;;11.25;5.60;;;;;;;3.53;63.87;99899.47;3160095;28;20101;-68
2023/01/29 00:39:49;;;;;;;12.23;6.25;;;;;;;3.55;63.65;99902.91;3156924;28;20490;-67
2023/01/29 00:45:00;;;;;;;13.00;6.15;;;;;;;3.48;63.88;99905.56;3160281;28;20123;-66
2023/01/29 00:46:32;;;;;;;11.18;5.88;;;;;;;3.50;63.88;99899.53;3159552;28;20051;-66
2023/01/29 00:48:04;;;;;;;12.38;5.47;;;;;;;3.53;63.79;99896.06;3159600;28;20074;-66
2023/01/29 00:49:36;;;;;;;11.47;5.93;;;;;;;3.52;63.77;99899.50;3160059;28;20097;-68
2023/01/29 00:51:09;;;;;;;11.20;5.35;;;;;;;3.49;63.78;99903.00;3160186;28;20702;-68
2023/01/29 00:52:40;;;;;;;11.05;6.50;;;;;;;3.49;63.82;99902.09;3159626;28;20441;-69
2023/01/29 00:54:12;;;;;;;11.43;4.97;;;;;;;3.49;63.77;99902.09;3159919;28;20056;-68
2023/01/29 00:55:45;;;;;;;10.45;5.20;;;;;;;3.43;63.82;99890.19;3160006;28;20055;-70
2023/01/29 00:57:16;;;;;;;10.75;5.03;;;;;;;3.43;63.60;99903.03;3159855;28;20097;-68
2023/01/29 00:58:48;;;;;;;12.23;5.78;;;;;;;3.44;63.74;99899.63;3159597;28;20545;-68
2023/01/29 01:00:21;;;;;;;10.63;6.00;;;;;;;3.45;63.63;99903.88;3159548;28;20048;-68
2023/01/29 01:03:44;;;;;;;8.13;5.20;;;;;;;3.53;63.49;99911.50;3159810;28;20130;-68
2023/01/29 01:05:17;;;;;;;9.15;5.00;;;;;;;3.55;63.52;99899.44;3159438;28;20221;-68
2023/01/29 01:06:51;;;;;;;9.98;5.45;;;;;;;3.54;63.54;99905.47;3159761;28;20105;-68
2023/01/29 01:10:21;;;;;;;10.40;5.35;;;;;;;3.48;63.58;99898.69;3159915;28;20063;-67
2023/01/29 01:11:52;;;;;;;11.07;5.07;;;;;;;3.44;63.61;99902.19;3148993;28;20048;-68
2023/01/29 01:13:24;;;;;;;10.88;5.40;;;;;;;3.45;63.58;99905.63;3155730;28;20044;-68
2023/01/29 01:14:55;;;;;;;10.40;4.97;;;;;;;3.44;63.58;99901.34;3159558;28;20792;-68
2023/01/29 01:16:26;;;;;;;10.13;5.35;;;;;;;3.44;63.70;99907.34;3160016;28;20178;-67
2023/01/29 01:18:00;;;;;;;11.48;5.60;;;;;;;3.44;63.74;99904.78;3159428;28;20798;-67
2023/01/29 01:19:34;;;;;;;11.18;6.07;;;;;;;3.42;63.71;99899.63;3159495;28;20048;-67
2023/01/29 01:21:06;;;;;;;9.60;4.90;;;;;;;3.41;63.84;99909.97;3152032;28;20054;-67
2023/01/29 01:22:38;;;;;;;11.67;6.07;;;;;;;3.40;63.93;99903.97;3159268;28;20420;-67
2023/01/29 01:24:10;;;;;;;10.95;5.45;;;;;;;3.39;63.98;99912.53;3159398;28;20090;-68
2023/01/29 01:25:42;;;;;;;10.60;5.72;;;;;;;3.37;64.16;99909.16;3159375;28;20058;-68
2023/01/29 01:27:15;;;;;;;10.60;5.18;;;;;;;3.36;64.13;99904.88;3159169;28;20048;-68
2023/01/29 01:28:46;;;;;;;10.48;5.85;;;;;;;3.35;64.19;99905.75;3159839;28;20083;-68
2023/01/29 01:30:18;;;;;;;11.48;5.47;;;;;;;3.34;64.12;99916.94;3159665;28;20048;-68
2023/01/29 01:31:50;;;;;;;10.75;5.38;;;;;;;3.33;64.12;99909.22;3159276;28;20093;-67
2023/01/29 01:33:22;;;;;;;11.60;5.63;;;;;;;3.33;64.27;99914.34;3159697;28;20097;-68
2023/01/29 01:34:54;;;;;;;12.05;5.55;;;;;;;3.29;64.38;99905.00;3159199;28;20051;-68
2023/01/29 01:36:26;;;;;;;9.43;5.07;;;;;;;3.28;64.40;99914.41;3153739;28;20120;-68
2023/01/29 01:37:59;;;;;;;11.55;6.05;;;;;;;3.32;64.31;99916.09;3151295;28;20044;-68
2023/01/29 01:39:31;;;;;;;9.07;4.93;;;;;;;3.28;64.42;99904.13;3159612;28;20044;-68
2023/01/29 01:41:03;;;;;;;10.98;5.47;;;;;;;3.29;64.53;99905.84;3159268;28;20052;-70
2023/01/29 01:42:33;;;;;;;10.93;5.38;;;;;;;3.30;64.49;99916.97;3159205;28;20410;-71
2023/01/29 01:44:06;;;;;;;10.52;5.32;;;;;;;3.32;64.50;99903.22;3158377;28;20069;-71
2023/01/29 01:45:38;;;;;;;9.32;5.10;;;;;;;3.33;64.51;99909.22;3159303;28;20105;-71
2023/01/29 01:47:10;;;;;;;12.85;6.50;;;;;;;3.31;64.60;99905.78;3159588;28;20059;-67
2023/01/29 01:48:42;;;;;;;10.30;5.65;;;;;;;3.31;64.61;99903.22;3158966;28;20052;-67
2023/01/29 01:50:17;;;;;;;10.80;5.57;;;;;;;3.30;64.68;99901.53;3159107;28;20174;-66
2023/01/29 01:51:52;;;;;;;11.45;5.40;;;;;;;3.28;64.63;99898.97;3159175;28;20528;-68
2023/01/29 01:53:30;;;;;;;11.43;5.53;;;;;;;3.32;64.49;99905.78;3158809;28;20051;-68
2023/01/29 01:55:02;;;;;;;9.35;5.53;;;;;;;3.29;64.59;99903.25;3158960;28;20082;-67
2023/01/29 01:56:41;;;;;;;9.75;5.25;;;;;;;3.32;64.64;99904.94;3159220;28;20468;-68
2023/01/29 01:58:18;;;;;;;9.13;5.35;;;;;;;3.30;64.39;99897.22;3159080;28;20059;-67
2023/01/29 01:59:53;;;;;;;10.95;5.30;;;;;;;3.35;64.45;99907.47;3158841;28;20098;-66
2023/01/29 02:01:27;;;;;;;12.10;6.03;;;;;;;3.34;64.53;99906.63;3158536;28;20589;-67
2023/01/29 02:10:38;;;;;;;12.23;5.10;;;;;;;3.36;64.57;99914.31;3151164;28;20067;-68
2023/01/29 02:12:12;;;;;;;10.27;5.20;;;;;;;3.35;64.56;99910.91;3159112;28;20449;-68
2023/01/29 02:13:45;;;;;;;9.10;5.15;;;;;;;3.35;64.62;99908.31;3158742;28;20052;-68
2023/01/29 02:15:16;;;;;;;10.53;5.20;;;;;;;3.36;64.60;99912.59;3158557;28;20048;-67
2023/01/29 02:16:48;;;;;;;11.27;5.47;;;;;;;3.38;64.66;99913.44;3159451;28;20309;-68
2023/01/29 02:18:21;;;;;;;12.82;5.80;;;;;;;3.36;64.66;99911.75;3158876;28;20040;-68
2023/01/29 02:19:57;;;;;;;;;;;;;;;3.35;64.52;99923.75;3158997;28;20121;-67
2023/01/29 02:22:05;;;;;;;9.90;5.38;;;;;;;3.36;64.77;99914.31;3158749;28;20416;-68
2023/01/29 02:23:57;;;;;;;10.38;5.47;;;;;;;3.33;64.87;99911.78;3158714;28;20078;-67
2023/01/29 02:26:09;;;;;;;11.38;5.90;;;;;;;3.39;64.86;99920.25;3158694;28;20048;-66
2023/01/29 02:28:11;;;;;;;11.75;6.30;;;;;;;3.35;65.01;99921.19;3158929;28;20419;-67
2023/01/29 02:29:54;;;;;;;8.70;4.90;;;;;;;3.40;64.94;99932.28;3157852;28;20044;-67
2023/01/29 02:31:32;;;;;;;10.82;5.32;;;;;;;3.42;64.86;99930.53;3152684;28;20059;-68
2023/01/29 02:33:11;;;;;;;10.50;5.72;;;;;;;3.44;64.87;99929.66;3158440;28;20562;-68
2023/01/29 02:36:46;;;;;;;11.48;5.63;;;;;;;3.48;65.04;99941.63;3149298;28;20048;-68
2023/01/29 02:38:26;;;;;;;10.57;5.90;;;;;;;3.48;65.09;99928.75;3158739;28;20058;-69
2023/01/29 02:40:08;;;;;;;11.57;5.78;;;;;;;3.48;65.19;99932.16;3158066;28;20174;-70
2023/01/29 02:41:44;;;;;;;11.48;5.60;;;;;;;3.49;65.22;99938.16;3158862;28;20067;-68
2023/01/29 02:43:27;;;;;;;13.18;6.45;;;;;;;3.51;65.33;99933.84;3158735;28;20040;-70
2023/01/29 02:45:05;;;;;;;11.20;5.95;;;;;;;3.50;65.42;99930.44;3158699;28;20044;-69
2023/01/29 02:46:40;;;;;;;12.23;5.75;;;;;;;3.52;65.48;99935.53;3158383;28;20143;-69
2023/01/29 02:48:16;;;;;;;10.80;6.22;;;;;;;3.52;65.44;99943.25;3158617;28;20052;-70
2023/01/29 02:49:52;;;;;;;11.88;6.43;;;;;;;3.52;65.59;99940.69;3158466;28;20054;-69
2023/01/29 02:51:29;;;;;;;12.50;6.57;;;;;;;3.51;65.64;99939.84;3158679;28;20440;-69
2023/01/29 02:53:09;;;;;;;12.43;6.40;;;;;;;3.50;65.66;99939.88;3158415;28;20101;-69
2023/01/29 02:54:47;;;;;;;9.50;5.45;;;;;;;3.51;65.91;99939.00;3158445;28;20051;-69
2023/01/29 02:56:24;;;;;;;11.40;6.10;;;;;;;3.48;65.87;99945.03;3158642;28;20119;-69
2023/01/29 02:58:02;;;;;;;10.18;5.90;;;;;;;3.39;66.09;99927.16;3158193;28;20121;-69
2023/01/29 02:59:44;;;;;;;10.80;6.40;;;;;;;3.45;66.16;99944.22;3158704;28;20048;-69
2023/01/29 03:01:21;;;;;;;12.68;6.47;;;;;;;3.42;66.26;99938.25;3158369;28;20056;-70
2023/01/29 03:02:59;;;;;;;12.80;6.63;;;;;;;3.43;66.35;99944.22;3158515;28;20105;-69
2023/01/29 03:04:37;;;;;;;11.10;5.90;;;;;;;3.44;66.34;99945.13;3158409;28;20495;-69
2023/01/29 03:06:17;;;;;;;13.68;6.20;;;;;;;3.42;66.35;99948.53;3155581;28;20052;-69
2023/01/29 03:07:54;;;;;;;10.52;6.63;;;;;;;3.44;66.42;99947.69;3158325;28;20147;-69
2023/01/29 03:09:33;;;;;;;12.52;6.70;;;;;;;3.45;66.29;99947.66;3158454;28;20608;-69
2023/01/29 03:11:06;;;;;;;10.07;5.82;;;;;;;3.44;66.46;99951.09;3158342;28;20048;-69
2023/01/29 03:12:40;;;;;;;12.25;7.03;;;;;;;3.42;66.47;99943.38;3158246;28;20197;-70
2023/01/29 03:14:16;;;;;;;11.38;6.07;;;;;;;3.41;66.62;99952.00;3157318;28;20060;-70
2023/01/29 03:16:00;;;;;;;12.88;6.68;;;;;;;3.38;66.78;99952.03;3158433;28;20048;-70
2023/01/29 03:17:40;;;;;;;11.27;6.28;;;;;;;3.40;66.79;99952.00;3158478;28;20531;-69
2023/01/29 03:19:16;;;;;;;12.05;6.53;;;;;;;3.40;66.77;99957.16;3157340;28;20512;-69
2023/01/29 03:20:53;;;;;;;15.18;6.88;;;;;;;3.39;66.78;99953.72;3157043;28;20132;-70
2023/01/29 03:22:26;;;;;;;11.48;6.18;;;;;;;3.41;66.77;99954.56;3158348;28;20105;-70
2023/01/29 03:33:25;;;;;;;12.60;6.72;;;;;;;3.39;66.86;99963.19;3157745;28;20040;-70
2023/01/29 03:35:02;;;;;;;13.75;6.40;;;;;;;3.36;66.92;99966.66;3157795;28;20047;-72
2023/01/29 03:36:38;;;;;;;12.18;6.20;;;;;;;3.35;66.91;99969.25;3157332;28;20051;-72
2023/01/29 03:38:11;;;;;;;10.55;6.15;;;;;;;3.30;67.00;99961.56;3157963;28;20412;-71
2023/01/29 03:39:42;;;;;;;10.93;6.30;;;;;;;3.39;66.93;99974.31;3151744;28;20044;-71
2023/01/29 03:41:25;;;;;;;12.65;6.32;;;;;;;3.37;66.77;99976.09;3156980;28;20101;-70
2023/01/29 03:43:09;;;;;;;11.82;6.53;;;;;;;3.36;66.89;99974.38;3157739;28;20445;-70
2023/01/29 03:44:47;;;;;;;;;;;;;;;3.33;66.80;99974.41;3151903;28;20113;-70
2023/01/29 03:46:28;;;;;;;12.63;6.68;;;;;;;3.31;66.92;99971.03;3157803;28;19920;-70
2023/01/29 03:48:07;;;;;;;15.60;6.93;;;;;;;3.31;67.00;99975.28;3157827;28;20123;-71
2023/01/29 03:49:57;;;;;;;11.88;6.40;;;;;;;3.28;67.12;99971.03;3157370;28;20567;-70
2023/01/29 03:51:35;;;;;;;10.98;5.82;;;;;;;3.27;67.04;99976.22;3157100;28;20109;-71
2023/01/29 03:53:17;;;;;;;11.68;6.03;;;;;;;3.26;67.10;99977.09;3157393;28;20504;-70
2023/01/29 03:55:00;;;;;;;13.35;6.60;;;;;;;3.24;67.02;99987.41;3157968;28;20040;-70
2023/01/29 03:56:49;;;;;;;10.95;6.22;;;;;;;3.25;67.07;99991.66;3155354;28;20089;-70
2023/01/29 03:58:27;;;;;;;10.82;5.43;;;;;;;3.23;67.14;99990.84;3157581;28;20043;-71
2023/01/29 04:00:07;;;;;;;11.15;5.72;;;;;;;3.21;67.06;99989.16;3157650;28;20073;-70
2023/01/29 04:01:46;;;;;;;11.00;6.15;;;;;;;3.19;67.24;99994.31;3157084;28;20566;-70
2023/01/29 04:03:22;;;;;;;9.82;5.10;;;;;;;3.19;67.26;99987.47;3157335;28;20040;-70
2023/01/29 04:04:59;;;;;;;13.02;6.15;;;;;;;3.20;67.24;99998.59;3154675;28;20044;-70
2023/01/29 04:06:35;;;;;;;11.75;6.03;;;;;;;3.20;67.33;99993.47;3157196;28;20059;-69
2023/01/29 04:08:15;;;;;;;10.38;5.82;;;;;;;3.19;67.24;99996.88;3157544;28;20113;-68
2023/01/29 04:09:51;;;;;;;9.95;5.57;;;;;;;3.21;67.26;99995.16;3157471;28;20078;-69
2023/01/29 04:11:24;;;;;;;11.40;5.82;;;;;;;3.20;67.35;100006.34;3157761;28;20051;-68
2023/01/29 04:13:00;;;;;;;11.25;5.72;;;;;;;3.16;67.39;99991.78;3157337;28;20058;-68
2023/01/29 04:14:33;;;;;;;12.30;6.07;;;;;;;3.22;67.42;100006.28;3156908;28;20051;-69
2023/01/29 04:16:09;;;;;;;12.00;6.60;;;;;;;3.19;67.57;100009.75;3147065;28;20059;-69
2023/01/29 04:17:44;;;;;;;11.23;5.38;;;;;;;3.19;67.67;100012.31;3156179;28;20048;-69
2023/01/29 04:19:17;;;;;;;11.48;5.47;;;;;;;3.17;67.80;100014.09;3156009;28;20538;-69
2023/01/29 04:20:49;;;;;;;12.50;5.97;;;;;;;3.17;67.86;100014.09;3149153;28;20045;-69
2023/01/29 04:22:25;;;;;;;11.57;5.93;;;;;;;3.18;67.96;100016.63;3154920;28;20044;-69
2023/01/29 04:23:57;;;;;;;10.45;5.43;;;;;;;3.19;67.94;100023.50;3156581;28;20051;-69
2023/01/29 04:25:35;;;;;;;11.63;5.90;;;;;;;3.19;67.98;100014.91;3157694;28;20052;-69
2023/01/29 04:27:23;;;;;;;12.75;6.43;;;;;;;3.17;68.22;100019.22;3157695;28;20043;-69
2023/01/29 04:29:07;;;;;;;12.00;6.38;;;;;;;3.19;68.18;100018.34;3156852;28;20044;-69
2023/01/29 04:30:46;;;;;;;13.10;6.03;;;;;;;3.17;68.29;100022.66;3157342;28;20067;-69
2023/01/29 04:32:27;;;;;;;10.32;5.47;;;;;;;3.16;68.47;100017.50;3157490;28;20048;-68
2023/01/29 04:34:11;;;;;;;14.32;6.50;;;;;;;3.16;68.40;100027.81;3157194;28;20430;-70
2023/01/29 04:35:52;;;;;;;;;;;;;;;3.16;68.57;100023.50;3157671;28;20040;-68
2023/01/29 04:37:35;;;;;;;10.23;5.57;;;;;;;3.17;68.49;100019.22;3145799;28;19920;-68
2023/01/29 04:39:16;;;;;;;11.48;5.63;;;;;;;3.16;68.46;100026.06;3157659;28;20105;-69
2023/01/29 04:40:55;;;;;;;12.63;6.53;;;;;;;3.13;68.70;100022.69;3152378;28;20115;-68
2023/01/29 04:42:31;;;;;;;11.43;6.25;;;;;;;3.14;68.70;100024.41;3153155;28;20048;-66
2023/01/29 04:44:09;;;;;;;12.00;6.75;;;;;;;3.13;68.75;100023.53;3156986;28;20117;-67
2023/01/29 04:45:50;;;;;;;12.63;6.28;;;;;;;3.15;68.86;100026.97;3157186;28;20060;-67
2023/01/29 04:47:36;;;;;;;13.05;6.50;;;;;;;3.15;68.73;100024.38;3157377;28;20056;-67
2023/01/29 04:49:17;;;;;;;13.63;7.38;;;;;;;3.19;68.74;100025.19;3155269;28;20044;-68
2023/01/29 04:50:57;;;;;;;14.90;7.43;;;;;;;3.19;68.78;100032.91;3151794;28;20181;-69
2023/01/29 04:52:39;;;;;;;13.13;7.03;;;;;;;3.18;68.88;100031.22;3156928;28;20542;-69
2023/01/29 04:54:20;;;;;;;14.05;6.90;;;;;;;3.15;69.13;100028.69;3157070;28;20044;-70
2023/01/29 04:55:55;;;;;;;12.10;6.38;;;;;;;3.16;69.25;100040.66;3148738;28;20048;-70
2023/01/29 04:57:34;;;;;;;11.10;5.50;;;;;;;3.15;69.61;100042.41;3157640;28;20121;-67
2023/01/29 04:59:10;;;;;;;13.20;6.82;;;;;;;3.17;69.53;100039.81;3157329;28;20044;-68
2023/01/29 05:00:43;;;;;;;12.13;6.22;;;;;;;3.17;69.72;100045.81;3157085;28;20048;-68
2023/01/29 05:02:14;;;;;;;13.02;6.75;;;;;;;3.16;69.66;100035.53;3156945;28;20117;-68
2023/01/29 05:03:51;;;;;;;12.40;6.32;;;;;;;3.16;70.08;100036.38;3157260;28;20040;-67
2023/01/29 05:05:23;;;;;;;11.98;6.20;;;;;;;3.16;70.12;100043.25;3157406;28;20052;-67
2023/01/29 05:06:57;;;;;;;11.18;5.63;;;;;;;3.14;70.53;100045.84;3157011;28;20066;-68
2023/01/29 05:08:31;;;;;;;10.82;5.88;;;;;;;3.16;70.48;100040.66;3156952;28;20052;-69
2023/01/29 05:10:04;;;;;;;11.55;6.25;;;;;;;3.15;70.58;100044.97;3157740;28;20368;-70
2023/01/29 05:11:37;;;;;;;10.32;5.88;;;;;;;3.11;70.90;100045.88;3157234;28;20086;-69
2023/01/29 05:13:12;;;;;;;11.00;5.53;;;;;;;3.13;70.98;100051.00;3152885;28;20098;-69
2023/01/29 05:14:47;;;;;;;11.35;5.97;;;;;;;3.11;70.99;100048.47;3156928;28;20060;-68
2023/01/29 05:16:22;;;;;;;11.73;6.30;;;;;;;3.12;71.30;100047.56;3157080;28;20063;-69
2023/01/29 05:18:00;;;;;;;11.75;6.18;;;;;;;3.15;71.46;100051.84;3157378;28;20045;-68
2023/01/29 05:19:32;;;;;;;12.90;6.43;;;;;;;3.20;71.30;100055.22;3159012;28;20116;-68
2023/01/29 05:21:07;;;;;;;15.07;6.88;;;;;;;3.22;71.42;100045.75;3148942;28;20063;-69
2023/01/29 05:22:42;;;;;;;14.13;7.20;;;;;;;3.22;71.51;100053.47;3157115;28;20517;-68
2023/01/29 05:24:16;;;;;;;12.45;6.45;;;;;;;3.23;71.68;100049.19;3159417;28;20052;-69
2023/01/29 05:25:50;;;;;;;13.25;6.65;;;;;;;3.21;71.82;100049.19;3159312;28;20054;-69
2023/01/29 05:29:19;;;;;;;13.38;6.88;;;;;;;3.17;71.88;100058.69;3157000;28;20048;-69
2023/01/29 05:30:53;;;;;;;15.05;8.25;;;;;;;3.11;71.92;100050.19;3153272;28;20131;-69
2023/01/29 05:32:25;;;;;;;16.27;7.45;;;;;;;3.18;71.99;100057.81;3159417;28;20433;-68
2023/01/29 05:33:57;;;;;;;14.85;7.70;;;;;;;3.17;72.05;100058.69;3159146;28;20145;-69
2023/01/29 05:35:29;;;;;;;14.40;7.45;;;;;;;3.16;72.07;100056.97;3159029;28;20084;-68
2023/01/29 05:36:59;;;;;;;13.63;7.55;;;;;;;3.18;71.94;100056.97;3159519;28;20410;-69
2023/01/29 05:38:33;;;;;;;14.77;7.85;;;;;;;3.20;72.03;100055.22;3159542;28;20104;-69
2023/01/29 05:40:08;;;;;;;15.77;7.68;;;;;;;3.21;71.93;100062.06;3159536;28;20050;-69
2023/01/29 05:41:40;;;;;;;15.02;7.25;;;;;;;3.22;71.89;100058.63;3157969;28;20079;-70
2023/01/29 05:43:16;;;;;;;16.55;8.32;;;;;;;3.23;71.67;100062.06;3153028;28;20051;-71
2023/01/29 05:44:47;;;;;;;14.65;7.40;;;;;;;3.23;71.74;100065.50;3151662;28;20059;-69
2023/01/29 05:46:19;;;;;;;14.90;7.78;;;;;;;3.24;71.77;100067.19;3152828;28;20047;-68
2023/01/29 05:47:51;;;;;;;14.50;7.53;;;;;;;3.22;71.87;100068.91;3152002;28;20044;-70
2023/01/29 05:49:23;;;;;;;13.88;7.75;;;;;;;3.22;71.72;100066.34;3153576;28;20051;-68
2023/01/29 05:50:59;;;;;;;13.07;7.05;;;;;;;3.24;71.76;100064.59;3152210;28;20505;-68
2023/01/29 05:52:31;;;;;;;15.98;7.32;;;;;;;3.21;71.85;100066.38;3152779;28;20148;-69
2023/01/29 05:54:05;;;;;;;15.32;7.18;;;;;;;3.22;71.85;100074.06;3150732;28;20060;-70
2023/01/29 05:55:37;;;;;;;18.10;7.85;;;;;;;3.22;71.88;100075.78;3152176;28;20509;-68
2023/01/29 05:57:09;;;;;;;14.82;7.47;;;;;;;3.21;71.72;100081.81;3152051;28;20048;-74
2023/01/29 05:58:41;;;;;;;15.68;7.38;;;;;;;3.22;71.76;100079.19;3149851;28;20529;-69
2023/01/29 06:00:14;;;;;;;14.23;7.20;;;;;;;3.24;71.81;100087.78;3152277;28;20110;-68
2023/01/29 06:01:46;;;;;;;15.32;8.10;;;;;;;3.25;71.81;100080.91;3150404;28;20053;-72
2023/01/29 06:03:17;;;;;;;85.57;34.80;;;;;;;3.27;71.85;100089.47;3150871;28;20052;-73
2023/01/29 06:04:51;;;;;;;71.32;32.17;;;;;;;3.30;71.80;100089.44;3152138;28;20724;-76
2023/01/29 06:06:21;;;;;;;39.63;19.40;;;;;;;3.32;71.47;100085.97;3149996;28;20117;-77
2023/01/29 06:07:53;;;;;;;23.58;11.20;;;;;;;3.29;71.12;100090.31;3153921;28;20432;-75
2023/01/29 06:09:27;;;;;;;17.33;9.50;;;;;;;3.27;71.26;100090.31;3149900;28;20063;-76
2023/01/29 06:10:58;;;;;;;14.35;7.70;;;;;;;3.26;71.30;100087.78;3156718;28;20074;-77
2023/01/29 06:12:30;;;;;;;16.92;8.55;;;;;;;3.26;71.36;100092.91;3159198;28;20044;-75
2023/01/29 06:14:02;;;;;;;16.05;7.10;;;;;;;3.28;71.08;100098.88;3158005;28;20054;-74
2023/01/29 06:15:34;;;;;;;14.13;7.55;;;;;;;3.18;71.42;100095.56;3157138;28;20105;-76
2023/01/29 06:17:06;;;;;;;18.08;8.75;;;;;;;3.24;71.24;100099.78;3158636;28;20040;-71
2023/01/29 06:18:39;;;;;;;16.73;7.97;;;;;;;3.23;71.31;100103.25;3158066;28;20120;-75
2023/01/29 06:20:12;;;;;;;14.45;7.82;;;;;;;3.19;71.39;100104.97;3151513;28;20173;-76
2023/01/29 06:21:44;;;;;;;14.65;7.18;;;;;;;3.17;71.50;100104.16;3156401;28;20589;-75
2023/01/29 06:23:16;;;;;;;15.07;8.48;;;;;;;3.13;71.80;100103.31;3158747;28;20071;-72
2023/01/29 06:24:49;;;;;;;17.83;11.75;;;;;;;3.14;71.95;100106.75;3158844;28;20089;-72
2023/01/29 06:26:21;;;;;;;14.98;8.90;;;;;;;3.07;72.10;100100.81;3156783;28;20052;-75
2023/01/29 06:27:53;;;;;;;10.80;6.07;;;;;;;3.12;72.26;100108.50;3147690;28;20101;-76
2023/01/29 06:29:25;;;;;;;9.82;5.35;;;;;;;3.08;72.36;100112.81;3157386;28;20052;-73
2023/01/29 06:30:58;;;;;;;30.88;16.35;;;;;;;3.04;72.64;100111.13;3158143;28;20043;-68
2023/01/29 06:32:30;;;;;;;19.75;9.43;;;;;;;3.03;72.66;100104.28;3157351;28;20127;-68
2023/01/29 06:34:02;;;;;;;15.00;7.68;;;;;;;3.10;72.72;100112.78;3158492;28;20102;-74
2023/01/29 06:35:34;;;;;;;11.88;6.60;;;;;;;3.15;72.80;100114.44;3158123;28;20043;-72
2023/01/29 06:37:06;;;;;;;11.85;6.70;;;;;;;3.17;72.68;100119.59;3158690;28;20128;-76
2023/01/29 06:38:37;;;;;;;11.35;6.15;;;;;;;3.23;72.47;100118.69;3157391;28;20167;-74
2023/01/29 06:40:12;;;;;;;12.43;6.18;;;;;;;3.28;72.39;100119.47;3158703;28;20052;-74
2023/01/29 06:41:45;;;;;;;14.18;6.40;;;;;;;3.30;72.47;100125.47;3157850;28;20105;-68
2023/01/29 06:43:17;;;;;;;12.30;6.35;;;;;;;3.31;72.16;100128.03;3153577;28;20079;-70
2023/01/29 06:44:48;;;;;;;16.27;6.22;;;;;;;3.31;72.05;100127.16;3158853;28;20040;-70
2023/01/29 06:46:20;;;;;;;11.15;5.95;;;;;;;3.32;71.87;100131.47;3148925;28;20052;-77
2023/01/29 06:47:52;;;;;;;10.27;5.97;;;;;;;3.33;71.61;100138.31;3145208;28;20053;-80
2023/01/29 06:49:24;;;;;;;12.18;5.65;;;;;;;3.31;71.56;100133.19;3146530;28;20048;-74
2023/01/29 06:50:56;;;;;;;10.43;5.63;;;;;;;3.29;71.30;100137.50;3158042;28;20109;-70
2023/01/29 06:52:28;;;;;;;11.93;5.70;;;;;;;3.30;71.10;100139.19;3157959;28;20063;-73
2023/01/29 06:54:00;;;;;;;10.65;5.43;;;;;;;3.30;70.94;100139.19;3158289;28;20497;-72
2023/01/29 06:55:33;;;;;;;8.55;4.80;;;;;;;3.31;70.67;100140.91;3152192;28;20055;-75
2023/01/29 06:57:05;;;;;;;;;;;;;;;3.26;70.60;100140.09;3145370;28;20127;-71
2023/01/29 06:58:38;;;;;;;8.77;4.53;;;;;;;3.26;70.51;100141.81;3145663;28;19924;-68
2023/01/29 07:00:11;;;;;;;10.23;5.28;;;;;;;3.27;70.46;100138.38;3145159;28;20049;-70
2023/01/29 07:01:43;;;;;;;30.95;18.42;;;;;;;3.33;70.37;100144.28;3148115;28;20162;-66
2023/01/29 07:03:14;;;;;;;11.52;6.65;;;;;;;3.35;70.30;100145.16;3152525;28;20074;-72
2023/01/29 07:04:46;;;;;;;10.20;5.55;;;;;;;3.39;70.33;100145.97;3152070;28;20040;-74
2023/01/29 07:06:18;;;;;;;9.63;5.20;;;;;;;3.41;70.19;100145.06;3157956;28;20040;-74
2023/01/29 07:07:50;;;;;;;9.88;5.10;;;;;;;3.40;70.28;100151.09;3152354;28;20113;-80
2023/01/29 07:09:22;;;;;;;9.05;4.85;;;;;;;3.42;70.16;100149.34;3155244;28;20048;-71
2023/01/29 07:10:58;;;;;;;8.30;5.13;;;;;;;3.48;70.11;100148.44;3152033;28;20044;-76
2023/01/29 07:12:30;;;;;;;8.68;4.75;;;;;;;3.50;70.09;100157.00;3151057;28;20082;-76
2023/01/29 07:14:02;;;;;;;9.02;5.22;;;;;;;3.49;70.10;100157.00;3154712;28;20056;-76
2023/01/29 07:15:34;;;;;;;10.55;5.47;;;;;;;3.47;70.21;100156.19;3157803;28;20106;-74
2023/01/29 07:17:06;;;;;;;8.70;4.70;;;;;;;3.47;70.37;100158.75;3158246;28;20054;-74
2023/01/29 07:18:38;;;;;;;9.35;4.68;;;;;;;3.47;70.45;100153.63;3158218;28;20261;-73
2023/01/29 07:20:11;;;;;;;9.55;4.90;;;;;;;3.51;70.59;100158.69;3155776;28;20059;-77
2023/01/29 07:21:43;;;;;;;9.55;4.35;;;;;;;3.54;70.37;100168.97;3147603;28;20603;-75
2023/01/29 07:23:16;;;;;;;9.07;4.35;;;;;;;3.54;70.53;100163.81;3158318;28;20056;-69
2023/01/29 07:24:48;;;;;;;10.07;4.28;;;;;;;3.49;70.66;100169.88;3152585;28;20162;-71
2023/01/29 07:26:21;;;;;;;7.55;4.28;;;;;;;3.45;70.88;100166.50;3150049;28;20182;-71
2023/01/29 07:27:53;;;;;;;8.93;4.25;;;;;;;3.46;71.00;100167.34;3157129;28;20386;-69
2023/01/29 07:29:25;;;;;;;14.68;6.70;;;;;;;3.47;71.23;100161.34;3157400;28;20055;-69
2023/01/29 07:30:58;;;;;;;12.30;5.38;;;;;;;3.49;71.51;100165.63;3157959;28;20055;-69
2023/01/29 07:32:30;;;;;;;9.35;5.50;;;;;;;3.50;71.52;100166.47;3153844;28;20411;-76
2023/01/29 07:34:01;;;;;;;10.48;5.13;;;;;;;3.53;71.51;100169.00;3153732;28;20863;-70
2023/01/29 07:35:36;;;;;;;9.68;4.65;;;;;;;3.54;71.74;100160.41;3157892;28;20052;-72
2023/01/29 07:37:08;;;;;;;9.77;4.88;;;;;;;3.53;71.84;100164.69;3148398;28;20049;-66
2023/01/29 07:38:40;;;;;;;10.63;4.85;;;;;;;3.51;nan;100166.44;3144616;28;20048;-72
2023/01/29 07:40:13;;;;;;;8.20;4.07;;;;;;;3.44;72.00;100158.81;3145366;28;20106;-71
2023/01/29 07:41:46;;;;;;;8.20;4.03;;;;;;;3.42;72.11;100157.06;3157542;28;20113;-73
2023/01/29 07:43:18;;;;;;;10.00;4.80;;;;;;;3.47;72.04;100163.91;3157491;28;20877;-69
2023/01/29 07:44:50;;;;;;;6.00;3.63;;;;;;;3.49;72.00;100159.59;3150897;28;20044;-72
2023/01/29 07:46:21;;;;;;;8.77;4.40;;;;;;;3.52;72.11;100159.53;3148677;28;20040;-75
2023/01/29 07:47:54;;;;;;;17.48;8.18;;;;;;;3.51;72.04;100166.44;3157663;28;20490;-71
2023/01/29 07:49:26;;;;;;;19.00;8.43;;;;;;;3.49;71.96;100170.75;3157717;28;20059;-70
2023/01/29 07:50:58;;;;;;;21.48;9.45;;;;;;;3.50;72.24;100161.31;3157851;28;20749;-69
2023/01/29 07:52:31;;;;;;;11.90;6.13;;;;;;;3.54;72.11;100168.13;3152812;28;20394;-68
2023/01/29 07:54:02;;;;;;;16.13;7.15;;;;;;;3.53;72.09;100172.41;3157315;28;20056;-68